sensor_id;sensor_type;location;lat;lon;timestamp;temperature;humidity
8896;DHT22;4484;48.928;10.066;2022-11-12T00:01:27;2.80;99.90
8896;DHT22;4484;48.928;10.066;2022-11-12T00:04:13;2.80;99.90
8896;DHT22;4484;48.928;10.066;2022-11-12T00:06:58;2.80;99.90
8896;DHT22;4484;48.928;10.066;2022-11-12T00:09:43;2.80;99.90
8896;DHT22;4484;48.928;10.066;2022-11-12T00:12:29;2.80;99.90
8896;DHT22;4484;48.928;10.066;2022-11-12T00:15:14;2.80;99.90
8896;DHT22;4484;48.928;10.066;2022-11-12T00:18:00;2.80;99.90
8896;DHT22;4484;48.928;10.066;2022-11-12T00:20:46;2.80;99.90
8896;DHT22;4484;48.928;10.066;2022-11-12T00:23:31;2.80;99.90
8896;DHT22;4484;48.928;10.066;2022-11-12T00:26:17;2.80;99.90
8896;DHT22;4484;48.928;10.066;2022-11-12T00:29:02;2.70;99.90
8896;DHT22;4484;48.928;10.066;2022-11-12T00:31:48;2.70;99.90
8896;DHT22;4484;48.928;10.066;2022-11-12T00:34:35;2.60;99.90
8896;DHT22;4484;48.928;10.066;2022-11-12T00:37:20;2.60;99.90
8896;DHT22;4484;48.928;10.066;2022-11-12T00:40:09;2.50;99.90
8896;DHT22;4484;48.928;10.066;2022-11-12T00:42:54;2.40;99.90
8896;DHT22;4484;48.928;10.066;2022-11-12T00:45:42;2.40;99.90
8896;DHT22;4484;48.928;10.066;2022-11-12T00:48:27;2.30;99.90
8896;DHT22;4484;48.928;10.066;2022-11-12T00:51:13;2.30;99.90
8896;DHT22;4484;48.928;10.066;2022-11-12T00:53:59;2.30;99.90
8896;DHT22;4484;48.928;10.066;2022-11-12T00:56:46;2.20;99.90
8896;DHT22;4484;48.928;10.066;2022-11-12T00:59:31;2.20;99.90
8896;DHT22;4484;48.928;10.066;2022-11-12T01:02:17;2.20;99.90
8896;DHT22;4484;48.928;10.066;2022-11-12T01:05:04;2.20;99.90
8896;DHT22;4484;48.928;10.066;2022-11-12T01:07:49;2.20;99.90
8896;DHT22;4484;48.928;10.066;2022-11-12T01:10:40;2.20;99.90
8896;DHT22;4484;48.928;10.066;2022-11-12T01:13:25;2.20;99.90
8896;DHT22;4484;48.928;10.066;2022-11-12T01:16:17;2.20;99.90
8896;DHT22;4484;48.928;10.066;2022-11-12T01:19:06;2.20;99.90
8896;DHT22;4484;48.928;10.066;2022-11-12T01:21:52;2.20;99.90
8896;DHT22;4484;48.928;10.066;2022-11-12T01:24:38;2.20;99.90
8896;DHT22;4484;48.928;10.066;2022-11-12T01:27:23;2.20;99.90
8896;DHT22;4484;48.928;10.066;2022-11-12T01:30:09;2.20;99.90
8896;DHT22;4484;48.928;10.066;2022-11-12T01:32:55;2.20;99.90
8896;DHT22;4484;48.928;10.066;2022-11-12T01:35:41;2.20;99.90
8896;DHT22;4484;48.928;10.066;2022-11-12T01:38:26;2.10;99.90
8896;DHT22;4484;48.928;10.066;2022-11-12T01:41:16;2.10;99.90
8896;DHT22;4484;48.928;10.066;2022-11-12T01:44:18;2.10;99.90
8896;DHT22;4484;48.928;10.066;2022-11-12T01:47:18;2.10;99.90
8896;DHT22;4484;48.928;10.066;2022-11-12T01:50:48;2.10;99.90
8896;DHT22;4484;48.928;10.066;2022-11-12T01:53:27;2.10;99.90
8896;DHT22;4484;48.928;10.066;2022-11-12T01:56:17;2.10;99.90
8896;DHT22;4484;48.928;10.066;2022-11-12T01:59:07;2.10;99.90
8896;DHT22;4484;48.928;10.066;2022-11-12T02:01:55;2.10;99.90
8896;DHT22;4484;48.928;10.066;2022-11-12T02:04:42;2.10;99.90
8896;DHT22;4484;48.928;10.066;2022-11-12T02:07:28;2.10;99.90
8896;DHT22;4484;48.928;10.066;2022-11-12T02:10:14;2.00;99.90
8896;DHT22;4484;48.928;10.066;2022-11-12T02:13:00;2.00;99.90
8896;DHT22;4484;48.928;10.066;2022-11-12T02:16:06;2.00;99.90
8896;DHT22;4484;48.928;10.066;2022-11-12T02:18:53;2.00;99.90
8896;DHT22;4484;48.928;10.066;2022-11-12T02:21:38;2.00;99.90
8896;DHT22;4484;48.928;10.066;2022-11-12T02:27:10;2.00;99.90
8896;DHT22;4484;48.928;10.066;2022-11-12T02:29:56;2.00;99.90
8896;DHT22;4484;48.928;10.066;2022-11-12T02:32:41;2.10;99.90
8896;DHT22;4484;48.928;10.066;2022-11-12T02:35:27;2.10;99.90
8896;DHT22;4484;48.928;10.066;2022-11-12T02:38:12;2.10;99.90
8896;DHT22;4484;48.928;10.066;2022-11-12T02:40:57;2.20;99.90
8896;DHT22;4484;48.928;10.066;2022-11-12T02:43:43;2.20;99.90
8896;DHT22;4484;48.928;10.066;2022-11-12T02:46:29;2.20;99.90
8896;DHT22;4484;48.928;10.066;2022-11-12T02:49:14;2.20;99.90
8896;DHT22;4484;48.928;10.066;2022-11-12T02:52:00;2.20;99.90
8896;DHT22;4484;48.928;10.066;2022-11-12T02:54:45;2.30;99.90
8896;DHT22;4484;48.928;10.066;2022-11-12T02:57:30;2.30;99.90
8896;DHT22;4484;48.928;10.066;2022-11-12T03:00:15;2.30;99.90
8896;DHT22;4484;48.928;10.066;2022-11-12T03:03:02;2.30;99.90
8896;DHT22;4484;48.928;10.066;2022-11-12T03:06:14;2.30;99.90
8896;DHT22;4484;48.928;10.066;2022-11-12T03:09:00;2.30;99.90
8896;DHT22;4484;48.928;10.066;2022-11-12T03:11:45;2.30;99.90
8896;DHT22;4484;48.928;10.066;2022-11-12T03:14:30;2.30;99.90
8896;DHT22;4484;48.928;10.066;2022-11-12T03:17:15;2.30;99.90
8896;DHT22;4484;48.928;10.066;2022-11-12T03:20:01;2.30;99.90
8896;DHT22;4484;48.928;10.066;2022-11-12T03:22:59;2.40;99.90
8896;DHT22;4484;48.928;10.066;2022-11-12T03:25:45;2.50;99.90
8896;DHT22;4484;48.928;10.066;2022-11-12T03:28:30;2.50;99.90
8896;DHT22;4484;48.928;10.066;2022-11-12T03:31:16;2.50;99.90
8896;DHT22;4484;48.928;10.066;2022-11-12T03:34:01;2.50;99.90
8896;DHT22;4484;48.928;10.066;2022-11-12T03:36:47;2.60;99.90
8896;DHT22;4484;48.928;10.066;2022-11-12T03:39:32;2.70;99.90
8896;DHT22;4484;48.928;10.066;2022-11-12T03:42:17;2.70;99.90
8896;DHT22;4484;48.928;10.066;2022-11-12T03:45:03;2.80;99.90
8896;DHT22;4484;48.928;10.066;2022-11-12T03:47:51;2.90;99.90
8896;DHT22;4484;48.928;10.066;2022-11-12T03:50:36;2.90;99.90
8896;DHT22;4484;48.928;10.066;2022-11-12T03:53:22;3.00;99.90
8896;DHT22;4484;48.928;10.066;2022-11-12T03:56:08;3.00;99.90
8896;DHT22;4484;48.928;10.066;2022-11-12T03:58:53;3.00;99.90
8896;DHT22;4484;48.928;10.066;2022-11-12T04:01:39;3.00;99.90
8896;DHT22;4484;48.928;10.066;2022-11-12T04:04:25;3.00;99.90
8896;DHT22;4484;48.928;10.066;2022-11-12T04:07:30;3.10;99.90
8896;DHT22;4484;48.928;10.066;2022-11-12T04:10:35;3.10;99.90
8896;DHT22;4484;48.928;10.066;2022-11-12T04:13:20;3.10;99.90
8896;DHT22;4484;48.928;10.066;2022-11-12T04:16:15;3.10;99.90
8896;DHT22;4484;48.928;10.066;2022-11-12T04:19:19;3.20;99.90
8896;DHT22;4484;48.928;10.066;2022-11-12T04:22:23;3.20;99.90
8896;DHT22;4484;48.928;10.066;2022-11-12T04:25:10;3.20;99.90
8896;DHT22;4484;48.928;10.066;2022-11-12T04:28:15;3.30;99.90
8896;DHT22;4484;48.928;10.066;2022-11-12T04:31:01;3.30;99.90
8896;DHT22;4484;48.928;10.066;2022-11-12T04:33:47;3.30;99.90
8896;DHT22;4484;48.928;10.066;2022-11-12T04:36:32;3.40;99.90
8896;DHT22;4484;48.928;10.066;2022-11-12T04:39:17;3.30;99.90
8896;DHT22;4484;48.928;10.066;2022-11-12T04:42:02;3.30;99.90
8896;DHT22;4484;48.928;10.066;2022-11-12T04:45:10;3.30;99.90
8896;DHT22;4484;48.928;10.066;2022-11-12T04:47:55;3.20;99.90
8896;DHT22;4484;48.928;10.066;2022-11-12T04:50:42;3.20;99.90
8896;DHT22;4484;48.928;10.066;2022-11-12T04:53:29;3.20;99.90
8896;DHT22;4484;48.928;10.066;2022-11-12T04:56:14;3.10;99.90
8896;DHT22;4484;48.928;10.066;2022-11-12T04:58:59;3.10;99.90
8896;DHT22;4484;48.928;10.066;2022-11-12T05:01:45;3.10;99.90
8896;DHT22;4484;48.928;10.066;2022-11-12T05:04:30;3.10;99.90
8896;DHT22;4484;48.928;10.066;2022-11-12T05:07:16;3.10;99.90
8896;DHT22;4484;48.928;10.066;2022-11-12T05:10:01;3.00;99.90
8896;DHT22;4484;48.928;10.066;2022-11-12T05:12:47;3.00;99.90
8896;DHT22;4484;48.928;10.066;2022-11-12T05:15:33;3.00;99.90
8896;DHT22;4484;48.928;10.066;2022-11-12T05:18:18;3.00;99.90
8896;DHT22;4484;48.928;10.066;2022-11-12T05:21:04;3.00;99.90
8896;DHT22;4484;48.928;10.066;2022-11-12T05:24:10;2.90;99.90
8896;DHT22;4484;48.928;10.066;2022-11-12T05:27:18;2.90;99.90
8896;DHT22;4484;48.928;10.066;2022-11-12T05:30:04;2.90;99.90
8896;DHT22;4484;48.928;10.066;2022-11-12T05:32:50;2.90;99.90
8896;DHT22;4484;48.928;10.066;2022-11-12T05:35:36;2.80;99.90
8896;DHT22;4484;48.928;10.066;2022-11-12T05:38:22;2.70;99.90
8896;DHT22;4484;48.928;10.066;2022-11-12T05:41:08;2.70;99.90
8896;DHT22;4484;48.928;10.066;2022-11-12T05:43:54;2.70;99.90
8896;DHT22;4484;48.928;10.066;2022-11-12T05:46:39;2.70;99.90
8896;DHT22;4484;48.928;10.066;2022-11-12T05:49:25;2.60;99.90
8896;DHT22;4484;48.928;10.066;2022-11-12T05:52:10;2.60;99.90
8896;DHT22;4484;48.928;10.066;2022-11-12T05:54:56;2.50;99.90
8896;DHT22;4484;48.928;10.066;2022-11-12T05:57:42;2.50;99.90
8896;DHT22;4484;48.928;10.066;2022-11-12T06:00:28;2.50;99.90
8896;DHT22;4484;48.928;10.066;2022-11-12T06:03:13;2.40;99.90
8896;DHT22;4484;48.928;10.066;2022-11-12T06:05:58;2.30;99.90
8896;DHT22;4484;48.928;10.066;2022-11-12T06:08:44;2.30;99.90
8896;DHT22;4484;48.928;10.066;2022-11-12T06:11:29;2.30;99.90
8896;DHT22;4484;48.928;10.066;2022-11-12T06:14:14;2.30;99.90
8896;DHT22;4484;48.928;10.066;2022-11-12T06:17:00;2.20;99.90
8896;DHT22;4484;48.928;10.066;2022-11-12T06:19:46;2.20;99.90
8896;DHT22;4484;48.928;10.066;2022-11-12T06:22:31;2.20;99.90
8896;DHT22;4484;48.928;10.066;2022-11-12T06:25:17;2.20;99.90
8896;DHT22;4484;48.928;10.066;2022-11-12T06:28:02;2.20;99.90
8896;DHT22;4484;48.928;10.066;2022-11-12T06:30:47;2.20;99.90
8896;DHT22;4484;48.928;10.066;2022-11-12T06:33:33;2.10;99.90
8896;DHT22;4484;48.928;10.066;2022-11-12T06:36:19;2.10;99.90
8896;DHT22;4484;48.928;10.066;2022-11-12T06:39:04;2.10;99.90
8896;DHT22;4484;48.928;10.066;2022-11-12T06:41:50;2.10;99.90
8896;DHT22;4484;48.928;10.066;2022-11-12T06:44:36;2.00;99.90
8896;DHT22;4484;48.928;10.066;2022-11-12T06:47:21;2.00;99.90
8896;DHT22;4484;48.928;10.066;2022-11-12T06:50:07;2.10;99.90
8896;DHT22;4484;48.928;10.066;2022-11-12T06:52:57;2.10;99.90
8896;DHT22;4484;48.928;10.066;2022-11-12T06:55:43;2.10;99.90
8896;DHT22;4484;48.928;10.066;2022-11-12T06:58:28;2.20;99.90
8896;DHT22;4484;48.928;10.066;2022-11-12T07:01:15;2.20;99.90
8896;DHT22;4484;48.928;10.066;2022-11-12T07:04:01;2.30;99.90
8896;DHT22;4484;48.928;10.066;2022-11-12T07:06:48;2.30;99.90
8896;DHT22;4484;48.928;10.066;2022-11-12T07:09:33;2.40;99.90
8896;DHT22;4484;48.928;10.066;2022-11-12T07:12:18;2.50;99.90
8896;DHT22;4484;48.928;10.066;2022-11-12T07:15:03;2.50;99.90
8896;DHT22;4484;48.928;10.066;2022-11-12T07:17:49;2.60;99.90
8896;DHT22;4484;48.928;10.066;2022-11-12T07:20:34;2.60;99.90
8896;DHT22;4484;48.928;10.066;2022-11-12T07:23:19;2.70;99.90
8896;DHT22;4484;48.928;10.066;2022-11-12T07:26:15;2.70;99.90
8896;DHT22;4484;48.928;10.066;2022-11-12T07:29:01;2.70;99.90
8896;DHT22;4484;48.928;10.066;2022-11-12T07:31:47;2.80;99.90
8896;DHT22;4484;48.928;10.066;2022-11-12T07:34:33;2.80;99.90
8896;DHT22;4484;48.928;10.066;2022-11-12T07:37:19;2.80;99.90
8896;DHT22;4484;48.928;10.066;2022-11-12T07:40:05;2.90;99.90
8896;DHT22;4484;48.928;10.066;2022-11-12T07:42:50;3.00;99.90
8896;DHT22;4484;48.928;10.066;2022-11-12T07:45:35;3.00;99.90
8896;DHT22;4484;48.928;10.066;2022-11-12T07:48:21;3.10;99.90
8896;DHT22;4484;48.928;10.066;2022-11-12T07:51:14;3.20;99.90
8896;DHT22;4484;48.928;10.066;2022-11-12T07:54:00;3.40;99.90
8896;DHT22;4484;48.928;10.066;2022-11-12T07:56:45;3.60;99.90
8896;DHT22;4484;48.928;10.066;2022-11-12T07:59:30;3.90;99.90
8896;DHT22;4484;48.928;10.066;2022-11-12T08:02:16;4.20;99.90
8896;DHT22;4484;48.928;10.066;2022-11-12T08:05:01;4.50;99.90
8896;DHT22;4484;48.928;10.066;2022-11-12T08:07:46;4.70;99.90
8896;DHT22;4484;48.928;10.066;2022-11-12T08:10:32;4.90;99.90
8896;DHT22;4484;48.928;10.066;2022-11-12T08:13:18;5.10;99.90
8896;DHT22;4484;48.928;10.066;2022-11-12T08:16:03;5.20;99.90
8896;DHT22;4484;48.928;10.066;2022-11-12T08:18:48;5.30;99.90
8896;DHT22;4484;48.928;10.066;2022-11-12T08:21:34;5.50;99.90
8896;DHT22;4484;48.928;10.066;2022-11-12T08:24:20;5.70;99.90
8896;DHT22;4484;48.928;10.066;2022-11-12T08:27:05;5.80;99.90
8896;DHT22;4484;48.928;10.066;2022-11-12T08:29:50;5.90;99.90
8896;DHT22;4484;48.928;10.066;2022-11-12T08:32:36;6.00;99.90
8896;DHT22;4484;48.928;10.066;2022-11-12T08:35:21;6.10;99.90
8896;DHT22;4484;48.928;10.066;2022-11-12T08:38:06;6.10;99.90
8896;DHT22;4484;48.928;10.066;2022-11-12T08:40:53;6.20;99.90
8896;DHT22;4484;48.928;10.066;2022-11-12T08:43:40;6.20;99.90
8896;DHT22;4484;48.928;10.066;2022-11-12T08:46:25;6.30;99.90
8896;DHT22;4484;48.928;10.066;2022-11-12T08:49:10;6.40;99.90
8896;DHT22;4484;48.928;10.066;2022-11-12T08:51:56;6.60;99.90
8896;DHT22;4484;48.928;10.066;2022-11-12T08:54:41;6.70;99.90
8896;DHT22;4484;48.928;10.066;2022-11-12T08:57:27;6.80;99.90
8896;DHT22;4484;48.928;10.066;2022-11-12T09:00:12;6.90;99.90
8896;DHT22;4484;48.928;10.066;2022-11-12T09:03:03;7.10;99.90
8896;DHT22;4484;48.928;10.066;2022-11-12T09:05:50;7.30;99.90
8896;DHT22;4484;48.928;10.066;2022-11-12T09:08:36;7.60;99.90
8896;DHT22;4484;48.928;10.066;2022-11-12T09:11:22;7.90;99.90
8896;DHT22;4484;48.928;10.066;2022-11-12T09:14:08;8.10;99.90
8896;DHT22;4484;48.928;10.066;2022-11-12T09:16:53;8.30;99.90
8896;DHT22;4484;48.928;10.066;2022-11-12T09:19:39;8.50;99.90
8896;DHT22;4484;48.928;10.066;2022-11-12T09:22:27;8.70;99.90
8896;DHT22;4484;48.928;10.066;2022-11-12T09:25:13;9.30;99.90
8896;DHT22;4484;48.928;10.066;2022-11-12T09:28:12;9.90;99.90
8896;DHT22;4484;48.928;10.066;2022-11-12T09:30:57;10.40;99.90
8896;DHT22;4484;48.928;10.066;2022-11-12T09:33:43;10.90;99.90
8896;DHT22;4484;48.928;10.066;2022-11-12T09:36:28;11.20;99.90
8896;DHT22;4484;48.928;10.066;2022-11-12T09:39:15;11.60;99.90
8896;DHT22;4484;48.928;10.066;2022-11-12T09:42:11;11.90;99.90
8896;DHT22;4484;48.928;10.066;2022-11-12T09:45:25;12.10;99.90
8896;DHT22;4484;48.928;10.066;2022-11-12T09:48:15;12.40;99.90
8896;DHT22;4484;48.928;10.066;2022-11-12T09:51:09;12.60;99.90
8896;DHT22;4484;48.928;10.066;2022-11-12T09:54:27;12.40;99.90
8896;DHT22;4484;48.928;10.066;2022-11-12T09:57:11;12.30;99.90
8896;DHT22;4484;48.928;10.066;2022-11-12T09:59:57;12.20;99.90
8896;DHT22;4484;48.928;10.066;2022-11-12T10:02:51;12.20;99.90
8896;DHT22;4484;48.928;10.066;2022-11-12T10:05:48;12.30;99.90
8896;DHT22;4484;48.928;10.066;2022-11-12T10:08:59;12.30;99.90
8896;DHT22;4484;48.928;10.066;2022-11-12T10:12:02;12.20;99.90
8896;DHT22;4484;48.928;10.066;2022-11-12T10:22:20;12.50;99.90
8896;DHT22;4484;48.928;10.066;2022-11-12T10:25:15;12.60;99.90
8896;DHT22;4484;48.928;10.066;2022-11-12T10:28:11;12.70;99.90
8896;DHT22;4484;48.928;10.066;2022-11-12T10:31:01;12.70;99.90
8896;DHT22;4484;48.928;10.066;2022-11-12T10:33:57;12.80;99.90
8896;DHT22;4484;48.928;10.066;2022-11-12T10:37:00;12.70;99.90
8896;DHT22;4484;48.928;10.066;2022-11-12T10:39:47;12.60;99.90
8896;DHT22;4484;48.928;10.066;2022-11-12T10:42:32;12.40;99.90
8896;DHT22;4484;48.928;10.066;2022-11-12T10:45:21;12.40;99.90
8896;DHT22;4484;48.928;10.066;2022-11-12T10:51:25;12.30;99.90
8896;DHT22;4484;48.928;10.066;2022-11-12T10:54:29;12.00;99.90
8896;DHT22;4484;48.928;10.066;2022-11-12T10:57:24;11.80;99.90
8896;DHT22;4484;48.928;10.066;2022-11-12T11:00:16;12.10;99.90
8896;DHT22;4484;48.928;10.066;2022-11-12T11:03:24;12.50;99.90
8896;DHT22;4484;48.928;10.066;2022-11-12T11:11:57;13.10;99.90
8896;DHT22;4484;48.928;10.066;2022-11-12T11:14:43;13.30;99.90
8896;DHT22;4484;48.928;10.066;2022-11-12T11:17:29;13.60;99.90
8896;DHT22;4484;48.928;10.066;2022-11-12T11:20:30;13.90;99.90
8896;DHT22;4484;48.928;10.066;2022-11-12T11:23:24;14.20;99.90
8896;DHT22;4484;48.928;10.066;2022-11-12T11:39:05;14.40;99.90
8896;DHT22;4484;48.928;10.066;2022-11-12T11:42:21;14.50;99.90
8896;DHT22;4484;48.928;10.066;2022-11-12T11:45:21;14.50;99.90
8896;DHT22;4484;48.928;10.066;2022-11-12T12:00:49;14.30;99.90
8896;DHT22;4484;48.928;10.066;2022-11-12T12:03:53;14.00;99.90
8896;DHT22;4484;48.928;10.066;2022-11-12T12:09:53;13.40;99.90
8896;DHT22;4484;48.928;10.066;2022-11-12T12:16:01;13.30;99.90
8896;DHT22;4484;48.928;10.066;2022-11-12T12:22:08;13.30;99.90
8896;DHT22;4484;48.928;10.066;2022-11-12T12:25:26;13.20;99.90
8896;DHT22;4484;48.928;10.066;2022-11-12T12:28:38;13.20;99.90
8896;DHT22;4484;48.928;10.066;2022-11-12T12:31:26;13.40;99.90
8896;DHT22;4484;48.928;10.066;2022-11-12T12:34:22;13.60;99.90
8896;DHT22;4484;48.928;10.066;2022-11-12T12:40:18;13.90;99.90
8896;DHT22;4484;48.928;10.066;2022-11-12T12:43:44;13.90;99.90
8896;DHT22;4484;48.928;10.066;2022-11-12T12:46:33;14.10;99.90
8896;DHT22;4484;48.928;10.066;2022-11-12T12:49:33;14.00;99.90
8896;DHT22;4484;48.928;10.066;2022-11-12T12:52:21;14.00;99.90
8896;DHT22;4484;48.928;10.066;2022-11-12T12:55:33;14.00;99.90
8896;DHT22;4484;48.928;10.066;2022-11-12T13:04:06;13.80;99.90
8896;DHT22;4484;48.928;10.066;2022-11-12T13:06:55;13.60;99.90
8896;DHT22;4484;48.928;10.066;2022-11-12T13:09:41;13.50;99.90
8896;DHT22;4484;48.928;10.066;2022-11-12T13:15:58;13.20;99.90
8896;DHT22;4484;48.928;10.066;2022-11-12T13:18:55;13.10;99.90
8896;DHT22;4484;48.928;10.066;2022-11-12T13:21:43;13.10;99.90
8896;DHT22;4484;48.928;10.066;2022-11-12T13:33:27;12.50;99.90
8896;DHT22;4484;48.928;10.066;2022-11-12T13:36:26;12.50;99.90
8896;DHT22;4484;48.928;10.066;2022-11-12T13:39:18;12.50;99.90
8896;DHT22;4484;48.928;10.066;2022-11-12T13:42:15;12.50;99.90
8896;DHT22;4484;48.928;10.066;2022-11-12T13:45:23;12.50;99.90
8896;DHT22;4484;48.928;10.066;2022-11-12T13:48:17;12.50;99.90
8896;DHT22;4484;48.928;10.066;2022-11-12T13:54:31;12.40;99.90
8896;DHT22;4484;48.928;10.066;2022-11-12T14:03:05;11.90;99.90
8896;DHT22;4484;48.928;10.066;2022-11-12T14:05:52;11.90;99.90
8896;DHT22;4484;48.928;10.066;2022-11-12T14:08:50;11.80;99.90
8896;DHT22;4484;48.928;10.066;2022-11-12T14:21:31;11.30;99.90
8896;DHT22;4484;48.928;10.066;2022-11-12T14:24:16;11.20;99.90
8896;DHT22;4484;48.928;10.066;2022-11-12T14:27:01;11.10;99.90
8896;DHT22;4484;48.928;10.066;2022-11-12T14:29:47;11.00;99.90
8896;DHT22;4484;48.928;10.066;2022-11-12T14:32:46;10.90;99.90
8896;DHT22;4484;48.928;10.066;2022-11-12T14:35:37;10.80;99.90
8896;DHT22;4484;48.928;10.066;2022-11-12T14:38:26;10.60;99.90
8896;DHT22;4484;48.928;10.066;2022-11-12T14:41:29;10.50;99.90
8896;DHT22;4484;48.928;10.066;2022-11-12T14:44:21;10.30;99.90
8896;DHT22;4484;48.928;10.066;2022-11-12T14:47:08;10.10;99.90
8896;DHT22;4484;48.928;10.066;2022-11-12T14:49:54;9.90;99.90
8896;DHT22;4484;48.928;10.066;2022-11-12T14:52:41;9.70;99.90
8896;DHT22;4484;48.928;10.066;2022-11-12T14:55:33;9.60;99.90
8896;DHT22;4484;48.928;10.066;2022-11-12T14:58:21;9.40;99.90
8896;DHT22;4484;48.928;10.066;2022-11-12T15:04:22;9.00;99.90
8896;DHT22;4484;48.928;10.066;2022-11-12T15:07:24;8.90;99.90
8896;DHT22;4484;48.928;10.066;2022-11-12T15:10:42;8.80;99.90
8896;DHT22;4484;48.928;10.066;2022-11-12T15:13:37;8.80;99.90
8896;DHT22;4484;48.928;10.066;2022-11-12T15:16:27;8.60;99.90
8896;DHT22;4484;48.928;10.066;2022-11-12T15:19:20;8.50;99.90
8896;DHT22;4484;48.928;10.066;2022-11-12T15:22:17;8.40;99.90
8896;DHT22;4484;48.928;10.066;2022-11-12T15:25:17;8.40;99.90
8896;DHT22;4484;48.928;10.066;2022-11-12T15:28:20;8.30;99.90
8896;DHT22;4484;48.928;10.066;2022-11-12T15:31:17;8.10;99.90
8896;DHT22;4484;48.928;10.066;2022-11-12T15:40:10;7.70;99.90
8896;DHT22;4484;48.928;10.066;2022-11-12T15:42:56;7.60;99.90
8896;DHT22;4484;48.928;10.066;2022-11-12T15:45:42;7.50;99.90
8896;DHT22;4484;48.928;10.066;2022-11-12T15:48:27;7.40;99.90
8896;DHT22;4484;48.928;10.066;2022-11-12T15:51:15;7.30;99.90
8896;DHT22;4484;48.928;10.066;2022-11-12T15:54:00;7.20;99.90
8896;DHT22;4484;48.928;10.066;2022-11-12T15:56:46;7.10;99.90
8896;DHT22;4484;48.928;10.066;2022-11-12T15:59:33;7.00;99.90
8896;DHT22;4484;48.928;10.066;2022-11-12T16:02:18;6.90;99.90
8896;DHT22;4484;48.928;10.066;2022-11-12T16:05:04;6.80;99.90
8896;DHT22;4484;48.928;10.066;2022-11-12T16:07:50;6.80;99.90
8896;DHT22;4484;48.928;10.066;2022-11-12T16:10:37;6.70;99.90
8896;DHT22;4484;48.928;10.066;2022-11-12T16:13:30;6.70;99.90
8896;DHT22;4484;48.928;10.066;2022-11-12T16:16:16;6.60;99.90
8896;DHT22;4484;48.928;10.066;2022-11-12T16:19:01;6.50;99.90
8896;DHT22;4484;48.928;10.066;2022-11-12T16:21:46;6.50;99.90
8896;DHT22;4484;48.928;10.066;2022-11-12T16:24:32;6.40;99.90
8896;DHT22;4484;48.928;10.066;2022-11-12T16:27:17;6.30;99.90
8896;DHT22;4484;48.928;10.066;2022-11-12T16:30:27;6.20;99.90
8896;DHT22;4484;48.928;10.066;2022-11-12T16:33:13;6.20;99.90
8896;DHT22;4484;48.928;10.066;2022-11-12T16:35:58;6.10;99.90
8896;DHT22;4484;48.928;10.066;2022-11-12T16:38:45;6.00;99.90
8896;DHT22;4484;48.928;10.066;2022-11-12T16:41:30;5.90;99.90
8896;DHT22;4484;48.928;10.066;2022-11-12T16:44:16;5.80;99.90
8896;DHT22;4484;48.928;10.066;2022-11-12T16:47:02;5.80;99.90
8896;DHT22;4484;48.928;10.066;2022-11-12T16:49:48;5.70;99.90
8896;DHT22;4484;48.928;10.066;2022-11-12T16:52:33;5.60;99.90
8896;DHT22;4484;48.928;10.066;2022-11-12T16:55:19;5.50;99.90
8896;DHT22;4484;48.928;10.066;2022-11-12T16:58:05;5.40;99.90
8896;DHT22;4484;48.928;10.066;2022-11-12T17:00:50;5.30;99.90
8896;DHT22;4484;48.928;10.066;2022-11-12T17:03:36;5.30;99.90
8896;DHT22;4484;48.928;10.066;2022-11-12T17:06:24;5.20;99.90
8896;DHT22;4484;48.928;10.066;2022-11-12T17:09:15;5.20;99.90
8896;DHT22;4484;48.928;10.066;2022-11-12T17:12:01;5.10;99.90
8896;DHT22;4484;48.928;10.066;2022-11-12T17:14:46;5.10;99.90
8896;DHT22;4484;48.928;10.066;2022-11-12T17:17:32;5.00;99.90
8896;DHT22;4484;48.928;10.066;2022-11-12T17:20:17;5.00;99.90
8896;DHT22;4484;48.928;10.066;2022-11-12T17:23:03;5.00;99.90
8896;DHT22;4484;48.928;10.066;2022-11-12T17:25:59;4.90;99.90
8896;DHT22;4484;48.928;10.066;2022-11-12T17:28:45;4.80;99.90
8896;DHT22;4484;48.928;10.066;2022-11-12T17:31:31;4.80;99.90
8896;DHT22;4484;48.928;10.066;2022-11-12T17:34:16;4.70;99.90
8896;DHT22;4484;48.928;10.066;2022-11-12T17:37:02;4.70;99.90
8896;DHT22;4484;48.928;10.066;2022-11-12T17:39:47;4.60;99.90
8896;DHT22;4484;48.928;10.066;2022-11-12T17:42:33;4.60;99.90
8896;DHT22;4484;48.928;10.066;2022-11-12T17:45:18;4.60;99.90
8896;DHT22;4484;48.928;10.066;2022-11-12T17:48:04;4.50;99.90
8896;DHT22;4484;48.928;10.066;2022-11-12T17:50:50;4.50;99.90
8896;DHT22;4484;48.928;10.066;2022-11-12T17:53:36;4.50;99.90
8896;DHT22;4484;48.928;10.066;2022-11-12T17:56:22;4.50;99.90
8896;DHT22;4484;48.928;10.066;2022-11-12T17:59:08;4.40;99.90
8896;DHT22;4484;48.928;10.066;2022-11-12T18:01:53;4.40;99.90
8896;DHT22;4484;48.928;10.066;2022-11-12T18:04:39;4.30;99.90
8896;DHT22;4484;48.928;10.066;2022-11-12T18:07:24;4.30;99.90
8896;DHT22;4484;48.928;10.066;2022-11-12T18:10:09;4.20;99.90
8896;DHT22;4484;48.928;10.066;2022-11-12T18:13:01;4.20;99.90
8896;DHT22;4484;48.928;10.066;2022-11-12T18:15:46;4.10;99.90
8896;DHT22;4484;48.928;10.066;2022-11-12T18:18:31;4.10;99.90
8896;DHT22;4484;48.928;10.066;2022-11-12T18:21:17;4.10;99.90
8896;DHT22;4484;48.928;10.066;2022-11-12T18:24:02;4.00;99.90
8896;DHT22;4484;48.928;10.066;2022-11-12T18:26:47;3.90;99.90
8896;DHT22;4484;48.928;10.066;2022-11-12T18:29:32;3.90;99.90
8896;DHT22;4484;48.928;10.066;2022-11-12T18:32:20;3.80;99.90
8896;DHT22;4484;48.928;10.066;2022-11-12T18:35:05;3.80;99.90
8896;DHT22;4484;48.928;10.066;2022-11-12T18:37:51;3.70;99.90
8896;DHT22;4484;48.928;10.066;2022-11-12T18:40:37;3.70;99.90
8896;DHT22;4484;48.928;10.066;2022-11-12T18:43:23;3.70;99.90
8896;DHT22;4484;48.928;10.066;2022-11-12T18:46:09;3.60;99.90
8896;DHT22;4484;48.928;10.066;2022-11-12T18:48:54;3.60;99.90
8896;DHT22;4484;48.928;10.066;2022-11-12T18:51:40;3.60;99.90
8896;DHT22;4484;48.928;10.066;2022-11-12T18:54:26;3.60;99.90
8896;DHT22;4484;48.928;10.066;2022-11-12T18:57:12;3.60;99.90
8896;DHT22;4484;48.928;10.066;2022-11-12T18:59:57;3.60;99.90
8896;DHT22;4484;48.928;10.066;2022-11-12T19:02:42;3.60;99.90
8896;DHT22;4484;48.928;10.066;2022-11-12T19:05:28;3.60;99.90
8896;DHT22;4484;48.928;10.066;2022-11-12T19:08:13;3.60;99.90
8896;DHT22;4484;48.928;10.066;2022-11-12T19:11:03;3.50;99.90
8896;DHT22;4484;48.928;10.066;2022-11-12T19:13:50;3.50;99.90
8896;DHT22;4484;48.928;10.066;2022-11-12T19:16:39;3.50;99.90
8896;DHT22;4484;48.928;10.066;2022-11-12T19:19:29;3.50;99.90
8896;DHT22;4484;48.928;10.066;2022-11-12T19:22:14;3.50;99.90
8896;DHT22;4484;48.928;10.066;2022-11-12T19:25:00;3.40;99.90
8896;DHT22;4484;48.928;10.066;2022-11-12T19:27:48;3.40;99.90
8896;DHT22;4484;48.928;10.066;2022-11-12T19:30:33;3.40;99.90
8896;DHT22;4484;48.928;10.066;2022-11-12T19:33:19;3.30;99.90
8896;DHT22;4484;48.928;10.066;2022-11-12T19:36:05;3.30;99.90
8896;DHT22;4484;48.928;10.066;2022-11-12T19:38:56;3.30;99.90
8896;DHT22;4484;48.928;10.066;2022-11-12T19:41:42;3.30;99.90
8896;DHT22;4484;48.928;10.066;2022-11-12T19:44:27;3.20;99.90
8896;DHT22;4484;48.928;10.066;2022-11-12T19:47:12;3.20;99.90
8896;DHT22;4484;48.928;10.066;2022-11-12T19:49:58;3.20;99.90
8896;DHT22;4484;48.928;10.066;2022-11-12T19:52:43;3.20;99.90
8896;DHT22;4484;48.928;10.066;2022-11-12T19:55:30;3.20;99.90
8896;DHT22;4484;48.928;10.066;2022-11-12T19:58:21;3.20;99.90
8896;DHT22;4484;48.928;10.066;2022-11-12T20:01:09;3.10;99.90
8896;DHT22;4484;48.928;10.066;2022-11-12T20:03:55;3.10;99.90